Aviation Digital Data Service (ADDS)

Output produced by METARs form (0344 UTC 23 November 2017)
found at http://www.aviationweather.gov/adds/metars/
 
YPAD 230330Z 07004KT 020V130 9999 VCSH FEW018 BKN042 BKN090 21/15 Q1010 INTER 0330/0630 5000 SHRA SCT015 BKN025
TAF YPAD 222333Z 2300/2406 28010KT 9999 -SHRA SCT020 SCT035 
     FM230900 15008KT 9999 -SHRA SCT025 SCT040 
     FM231400 VRB03KT CAVOK 
     FM231900 04005KT 9999 SCT010 
     FM240000 21012KT 9999 -SHRA SCT030 INTER 2300/2309 5000 SHRA SCT015 BKN025 
     PROB30 INTER 2303/2308 3000 TSRA BKN015 SCT080CB
       
YABA 230300Z AUTO 12010KT 070V140 9999 // SCT040 21/08 Q1019
YMAY 230300Z AUTO 29004KT 210V350 9999 // NCD 30/11 Q1012
YBAS 230330Z AUTO 04006KT 010V120 9999 // NCD 33/13 Q1009 RF00.0/000.0
TAF YBAS 222310Z 2300/2324 15008KT CAVOK 
     FM230700 17012KT CAVOK 
     FM231500 12005KT CAVOK 
     FM232300 11012KT CAVOK 
     PROB30 
     TEMPO 2304/2311 VRB20G35KT 1000 TSRA BKN030 SCT050CB
       
YAMB 230330Z 10008KT 9999 VCSH FEW039 SCT050 BKN077 26/14 Q1014 INTER 0400/0600 VRB15G25KT 4000 SHRA BKN020
TAF YAMB 222310Z 2300/2318 08012KT 9999 -SHRA SCT035 BKN050 
     FM231000 12008KT 9999 FEW025 SCT050 
     FM231500 20005KT 9999 SCT030 INTER 2302/2308 VRB15G25KT 4000 SHRA BKN020
       
YARG 230300Z AUTO 27007KT 9999 // NCD 35/21 Q1006
YMAV 230341Z AUTO 13018KT 9999 -SHRA SCT043 SCT073 OVC100 27/08 Q1009 RESHRA
TAF AMD YMAV 230324Z 2303/2324 12008KT 9999 -SHRA SCT090 
     FM231000 VRB05KT CAVOK 
     PROB30 INTER 2303/2305 VRB25G40KT 2000 TSRA SCT050 BKN070CB
       
YAYE 230300Z AUTO 03009KT 030V120 9999 // NCD 31/12 Q1010
YLEC 230300Z AUTO 26011KT //// // ////// 25/15 Q1009
YLHI 230330Z 06009KT 9999 FEW022 SCT200 23/18 Q1018
TAF AMD YLHI 230328Z 2303/2324 05015KT 9999 -SHRA SCT015 BKN025 
     FM230900 04010KT 9999 -SHRA SCT010 BKN020 
     TEMPO 2303/2324 3000 SHRA BKN008
       
YLIS 230300Z AUTO 15010KT //// // ////// 24/16 Q1015
YLRE 230300Z AUTO 03010KT 9999 // BKN063 BKN079 OVC100 30/13 Q1010
YBNA 230300Z AUTO 17007KT 9999 // OVC081 22/17 Q1016
YBWX 230300Z AUTO 05018KT //// // ////// 30/23 Q1005
YBDV 230300Z AUTO 01013KT //// // ////// 34/09 Q1007
YBAS 230330Z AUTO 04006KT 010V120 9999 // NCD 33/13 Q1009 RF00.0/000.0
TAF YBAS 222310Z 2300/2324 15008KT CAVOK 
     FM230700 17012KT CAVOK 
     FM231500 12005KT CAVOK 
     FM232300 11012KT CAVOK 
     PROB30 
     TEMPO 2304/2311 VRB20G35KT 1000 TSRA BKN030 SCT050CB
       
YBBN 230330Z 12011KT 9999 VCSH FEW030 25/16 Q1014 NOSIG
TAF YBBN 222321Z 2300/2406 12010KT 9999 -SHRA SCT035 
     FM230200 10013KT 9999 -SHRA SCT035 
     FM230800 14007KT 9999 SCT030 
     FM231400 20005KT 9999 SCT030 
     FM232300 12011KT 9999 SCT035 
     FM240200 10013KT 9999 SCT035 INTER 2300/2304 3000 SHRA BKN012
       
YBCG 230330Z AUTO 12014KT 9999 // NCD 25/17 Q1015 RF00.0/000.0
TAF YBCG 222321Z 2300/2324 12012KT 9999 FEW035 
     FM231000 20005KT 9999 SCT025 
     FM232200 14010KT 9999 FEW035
       
YBCS 230330Z 08010KT 9999 FEW025 30/20 Q1008 NOSIG
TAF YBCS 222300Z 2300/2324 15008KT 9999 -SHRA SCT022 BKN035 
     FM230100 08010KT 9999 FEW025 SCT045 
     FM230800 13010KT 9999 SCT022 BKN035 INTER 2308/2318 3000 SHRA FEW005 BKN018
       
YBCV 230300Z AUTO 03006KT 9999 // SCT079 SCT110 29/07 Q1012
YBDV 230300Z AUTO 01013KT //// // ////// 34/09 Q1007
YBHI 230300Z AUTO 35015KT 9999 // SCT115 31/04 Q1010
YBHM 230340Z AUTO 15018KT 9999 // BKN020 BKN024 OVC031 25/21 Q1011
TAF YBHM 222259Z 2300/2312 12020KT 9999 -SHRA SCT025
       
YBMA 230330Z AUTO 31006KT 260V040 //// // NCD 35/13 Q1007
TAF YBMA 222219Z 2300/2312 05008KT 9999 FEW025 SCT050 
     PROB30 
     TEMPO 2304/2310 VRB25G35KT 1000 TSRA BKN014 SCT040CB
       
YBMK 230300Z AUTO 12015KT 9999 // NCD 27/22 Q1011
YBNA 230300Z AUTO 17007KT 9999 // OVC081 22/17 Q1016
YBOK 230300Z 05008G19KT 360V070 CAVOK 27/11 Q1015 NOSIG
YBPN 230300Z AUTO 11014KT 9999 // NCD 28/20 Q1010
YBRK 230330Z 07007KT 050V110 CAVOK 29/15 Q1011 RF00.0/000.0
TAF YBRK 222321Z 2300/2324 09010KT 9999 FEW040 
     FM231000 14008KT 9999 SCT025 
     FM232300 12010KT 9999 FEW040
       
YBRM 230330Z 29011KT CAVOK 32/25 Q1005
TAF YBRM 222302Z 2300/2324 25010KT CAVOK 
     FM230800 30012KT CAVOK 
     FM231800 24006KT 9999 SCT018
       
YBTL 230330Z 07016KT 9999 VCSH FEW028 BKN250 28/21 Q1009 NOSIG
TAF AMD YBTL 230320Z 2303/2324 07016KT 9999 -SHRA SCT030 SCT055 
     FM230900 10008KT 9999 -SHRA SCT020 SCT040 
     FM231500 13006KT 9999 -SHRA SCT020 SCT040 INTER 2311/2322 4000 SHRA BKN015
       
YBUD 230300Z AUTO 09014KT 9999 // NCD 27/15 Q1013
YBWP 230300Z AUTO 05005KT 010V110 9999 // SCT048 34/20 Q1006
YBWX 230300Z AUTO 05018KT //// // ////// 30/23 Q1005
YBBN 230330Z 12011KT 9999 VCSH FEW030 25/16 Q1014 NOSIG
TAF YBBN 222321Z 2300/2406 12010KT 9999 -SHRA SCT035 
     FM230200 10013KT 9999 -SHRA SCT035 
     FM230800 14007KT 9999 SCT030 
     FM231400 20005KT 9999 SCT030 
     FM232300 12011KT 9999 SCT035 
     FM240200 10013KT 9999 SCT035 INTER 2300/2304 3000 SHRA BKN012
       
YBHI 230300Z AUTO 35015KT 9999 // SCT115 31/04 Q1010
YBRM 230330Z 29011KT CAVOK 32/25 Q1005
TAF YBRM 222302Z 2300/2324 25010KT CAVOK 
     FM230800 30012KT CAVOK 
     FM231800 24006KT 9999 SCT018
       
YBUD 230300Z AUTO 09014KT 9999 // NCD 27/15 Q1013
YBCS 230330Z 08010KT 9999 FEW025 30/20 Q1008 NOSIG
TAF YBCS 222300Z 2300/2324 15008KT 9999 -SHRA SCT022 BKN035 
     FM230100 08010KT 9999 FEW025 SCT045 
     FM230800 13010KT 9999 SCT022 BKN035 INTER 2308/2318 3000 SHRA FEW005 BKN018
       
YSCB 230330Z 19017KT 9999 -SHRA VCTS SCT050 SCT200 FEW050CB 21/08 Q1015 INTER 0400/0630 VRB20G30KT 4000 TSRA BKN030 SCT050CB
TAF YSCB 222312Z 2300/2324 32010KT 9999 FEW045 
     FM230200 33010KT 9999 -SHRA SCT050 
     FM230900 08010KT 9999 SCT040 
     PROB30 INTER 2303/2309 VRB20G30KT 4000 TSRA BKN030 SCT050CB
       
YCAR 230300Z AUTO 11011KT 9999 // NCD 40/M02 Q1006
YCAS 230300Z AUTO 11011KT //// // ////// 25/16 Q1015
YCDU 230300Z AUTO 24019KT 9999 // SCT011 21/17 Q1010
YCAR 230300Z AUTO 11011KT 9999 // NCD 40/M02 Q1006
YCAS 230300Z AUTO 11011KT //// // ////// 25/16 Q1015
YCBA 230300Z AUTO 04008KT 020V080 9999 // SCT110 30/05 Q1012
YCBB 230300Z AUTO 23010KT //// // ////// 20/09 Q1016
YCBP 230315Z AUTO 23015G27KT 9999 // NCD 26/08 Q1011
YCCY 230300Z AUTO 28007KT //// // ////// 33/15 Q1007
YCDU 230300Z AUTO 24019KT 9999 // SCT011 21/17 Q1010
YCFS 230330Z AUTO 09010KT 9999 // NCD 24/16 Q1016 RF00.0/000.0
TAF YCFS 222308Z 2300/2324 08012KT 9999 -SHRA SCT035 
     FM230900 04006KT 9999 FEW030 INTER 2300/2303 4000 SHRA BKN015
       
YCIN 230330Z AUTO 31006KT 240V020 9999 // NCD 36/22 Q1004 RF00.0/000.2
TAF YCIN 230022Z 2302/2314 24008KT CAVOK 
     FM230700 31014KT CAVOK 
     PROB30 INTER 2304/2314 VRB25G45KT 2000 TSRA BKN020 FEW070CB
       
YCNM 230300Z AUTO 01005KT //// // ////// 29/03 Q1014
YCOM 230300Z AUTO 25006KT 200V280 9999 // NCD 23/09 Q1015
YBCV 230300Z AUTO 03006KT 9999 // SCT079 SCT110 29/07 Q1012
YCCY 230300Z AUTO 28007KT //// // ////// 33/15 Q1007
YCBA 230300Z AUTO 04008KT 020V080 9999 // SCT110 30/05 Q1012
YCBP 230315Z AUTO 23015G27KT 9999 // NCD 26/08 Q1011
YBCG 230330Z AUTO 12014KT 9999 // NCD 25/17 Q1015 RF00.0/000.0
TAF YBCG 222321Z 2300/2324 12012KT 9999 FEW035 
     FM231000 20005KT 9999 SCT025 
     FM232200 14010KT 9999 FEW035
       
YCOM 230300Z AUTO 25006KT 200V280 9999 // NCD 23/09 Q1015
YCBB 230300Z AUTO 23010KT //// // ////// 20/09 Q1016
YCNM 230300Z AUTO 01005KT //// // ////// 29/03 Q1014
YCIN 230330Z AUTO 31006KT 240V020 9999 // NCD 36/22 Q1004 RF00.0/000.2
TAF YCIN 230022Z 2302/2314 24008KT CAVOK 
     FM230700 31014KT CAVOK 
     PROB30 INTER 2304/2314 VRB25G45KT 2000 TSRA BKN020 FEW070CB
       
YPDN 230330Z 35009KT 9999 FEW032TCU BKN330 31/24 Q1006 FM0400 34008KT 9999 SCT040
TAF AMD YPDN 222310Z 2300/2406 35005KT 9999 FEW020 
     FM230200 34008KT 9999 SCT040 
     FM231200 04005KT 9999 FEW020 
     FM240300 04013KT 9999 SCT030 
     PROB30 
     TEMPO 2304/2311 VRB20G40KT 1000 TSRA BKN010 SCT020CB 
     PROB30 
     TEMPO 2316/2322 VRB20G35KT 1000 TSRA BKN010 SCT020CB
       
YDBY 230300Z AUTO 27006KT 240V320 9999 // NCD 34/25 Q1005
YSDU 230330Z AUTO 32009KT 300V020 9999 // SCT076 30/08 Q1014
TAF YSDU 222302Z 2300/2318 35010KT 9999 -SHRA BKN080 
     FM230900 06008KT 9999 FEW080
       
YEML 230300Z AUTO 09008KT 9999 // BKN066 28/13 Q1012
YESP 230300Z AUTO 16012KT 110V170 9999 // NCD 20/09 Q1020
YFRT 230330Z AUTO 17013KT //// // ////// 20/13 Q1017
TAF YFRT 230022Z 2302/2314 18017KT 9999 BKN030 
     FM231200 16014KT 9999 BKN025
       
YGEL 230330Z 12010KT CAVOK 34/M14 Q1011
TAF YGEL 222236Z 2300/2318 08018G28KT CAVOK 
     FM230300 11012KT CAVOK 
     FM230600 20022KT CAVOK 
     FM231100 17014KT CAVOK
       
YGLA 230330Z AUTO 10015KT 9999 // NCD 28/16 Q1012 RF00.0/000.0
TAF YGLA 222231Z 2300/2312 13012KT 9999 FEW035 
     FM230400 10014KT 9999 FEW045 
     FM231000 13008KT 9999 SCT030
       
YPGV 230330Z 06010KT 9999 FEW027 SCT034 FEW030TCU 31/23 Q1007
TAF YPGV 230004Z 2302/2314 05010KT 9999 SCT020 
     FM230800 05005KT 9999 SCT020
       
YGFN 230300Z AUTO 04008KT 010V080 9999 // NCD 26/16 Q1016
YGTH 230300Z AUTO 35006KT 290V020 9999 // SCT110 BKN125 32/03 Q1011
YGTE 230300Z AUTO 04006KT 9999 // NCD 30/25 Q1006 RERA
YBHM 230340Z AUTO 15018KT 9999 // BKN020 BKN024 OVC031 25/21 Q1011
TAF YBHM 222259Z 2300/2312 12020KT 9999 -SHRA SCT025
       
YMHB 230330Z 05010KT 9999 FEW070CB SCT270 29/11 Q1010 RF00.0/000.0
TAF YMHB 222307Z 2300/2324 36006KT CAVOK 
     FM230100 12012G22KT 9999 -SHRA NSC 
     FM231000 34008KT CAVOK
       
YHID 230330Z AUTO 07012KT 9999 // NCD 31/24 Q1006
TAF YHID 222259Z 2300/2324 09014KT 9999 SCT022 
     FM230900 12010KT 9999 SCT020 SCT040
       
YHUG 230300Z AUTO 11007KT 9999 // NCD 28/20 Q1009
YPKG 230330Z AUTO 09012KT 9999 // NCD 23/05 Q1018
TAF YPKG 222302Z 2300/2324 10010KT CAVOK
       
YKRY 230300Z AUTO 08008KT 9999 // NCD 23/13 Q1015
YKRY 230300Z AUTO 08008KT 9999 // NCD 23/13 Q1015
YPKU 230330Z AUTO 22008KT 170V250 9999 // NCD 36/22 Q1005 RF00.0/000.0
TAF YPKU 230022Z 2302/2314 32007KT CAVOK 
     PROB30 
     TEMPO 2304/2314 VRB25G45KT 2000 TSRA BKN020 FEW070CB
       
YMLT 230330Z AUTO 35007KT 9999 // SCT054 26/11 Q1012 RF00.0/000.0
TAF YMLT 222307Z 2300/2324 33012G20KT 9999 FEW030 
     FM231100 VRB05KT 9999 FEW030 
     PROB30 2317/2320 0500 FG
       
YPLM 230330Z AUTO 36008KT 9999 // NCD 39/03 Q1005
TAF YPLM 222302Z 2300/2324 16010KT CAVOK 
     FM230300 03012KT CAVOK 
     FM230600 32014KT CAVOK 
     FM231000 23014KT CAVOK
       
YLEC 230300Z AUTO 26011KT //// // ////// 25/15 Q1009
YLIS 230300Z AUTO 15010KT //// // ////// 24/16 Q1015
YLEC 230300Z AUTO 26011KT //// // ////// 25/15 Q1009
YLHI 230330Z 06009KT 9999 FEW022 SCT200 23/18 Q1018
TAF AMD YLHI 230328Z 2303/2324 05015KT 9999 -SHRA SCT015 BKN025 
     FM230900 04010KT 9999 -SHRA SCT010 BKN020 
     TEMPO 2303/2324 3000 SHRA BKN008
       
YLIS 230300Z AUTO 15010KT //// // ////// 24/16 Q1015
YLRE 230300Z AUTO 03010KT 9999 // BKN063 BKN079 OVC100 30/13 Q1010
YLRE 230300Z AUTO 03010KT 9999 // BKN063 BKN079 OVC100 30/13 Q1010
YBMK 230300Z AUTO 12015KT 9999 // NCD 27/22 Q1011
YMAV 230341Z AUTO 13018KT 9999 -SHRA SCT043 SCT073 OVC100 27/08 Q1009 RESHRA
TAF AMD YMAV 230324Z 2303/2324 12008KT 9999 -SHRA SCT090 
     FM231000 VRB05KT CAVOK 
     PROB30 INTER 2303/2305 VRB25G40KT 2000 TSRA SCT050 BKN070CB
       
YMAY 230300Z AUTO 29004KT 210V350 9999 // NCD 30/11 Q1012
YMDG 230300Z AUTO 23005KT 170V310 9999 // NCD 26/10 Q1015
YMEK 230300Z AUTO 06012KT 030V100 9999 // NCD 30/M02 Q1013
YMEN 230300Z AUTO 35014KT 9999 // BKN110 33/02 Q1009
YMER 230300Z AUTO 02009KT 9999 // SCT030 SCT076 BKN098 20/15 Q1013
YMHB 230330Z 05010KT 9999 FEW070CB SCT270 29/11 Q1010 RF00.0/000.0
TAF YMHB 222307Z 2300/2324 36006KT CAVOK 
     FM230100 12012G22KT 9999 -SHRA NSC 
     FM231000 34008KT CAVOK
       
YMIA 230300Z AUTO 30007KT 9999 // NCD 31/07 Q1009
YMLT 230330Z AUTO 35007KT 9999 // SCT054 26/11 Q1012 RF00.0/000.0
TAF YMLT 222307Z 2300/2324 33012G20KT 9999 FEW030 
     FM231100 VRB05KT 9999 FEW030 
     PROB30 2317/2320 0500 FG
       
YMML 230300Z 35016KT 9999 FEW105 FEW105TCU 33/04 Q1009 NOSIG
TAF YMML 222313Z 2300/2406 36018KT CAVOK 
     FM230300 36012KT 9999 -SHRA SCT090 
     FM231000 36010KT CAVOK 
     FM232200 36018KT CAVOK 
     FM240100 35010KT CAVOK
       
YMOR 230300Z AUTO 30004KT 9999 // SCT073 28/08 Q1014
YMTG 230300Z AUTO 19011KT 9999 // NCD 30/11 Q1009
YMEK 230300Z AUTO 06012KT 030V100 9999 // NCD 30/M02 Q1013
YMEN 230300Z AUTO 35014KT 9999 // BKN110 33/02 Q1009
YMML 230300Z 35016KT 9999 FEW105 FEW105TCU 33/04 Q1009 NOSIG
TAF YMML 222313Z 2300/2406 36018KT CAVOK 
     FM230300 36012KT 9999 -SHRA SCT090 
     FM231000 36010KT CAVOK 
     FM232200 36018KT CAVOK 
     FM240100 35010KT CAVOK
       
YMER 230300Z AUTO 02009KT 9999 // SCT030 SCT076 BKN098 20/15 Q1013
YMIA 230300Z AUTO 30007KT 9999 // NCD 31/07 Q1009
YMOR 230300Z AUTO 30004KT 9999 // SCT073 28/08 Q1014
YMTG 230300Z AUTO 19011KT 9999 // NCD 30/11 Q1009
YBMA 230330Z AUTO 31006KT 260V040 //// // NCD 35/13 Q1007
TAF YBMA 222219Z 2300/2312 05008KT 9999 FEW025 SCT050 
     PROB30 
     TEMPO 2304/2310 VRB25G35KT 1000 TSRA BKN014 SCT040CB
       
YMDG 230300Z AUTO 23005KT 170V310 9999 // NCD 26/10 Q1015
YNBR 230300Z AUTO 05013KT 9999 // SCT065 BKN087 OVC115 28/11 Q1015
YNAR 230300Z AUTO 31007KT 290V350 //// // ////// 32/04 Q1012
YNWN 230300Z AUTO 09009KT 9999 // NCD 32/04 Q1012
YNTN 230300Z AUTO 21004KT 9999 // NCD 32/18 Q1006
YSNW 230300Z 07014KT 9999 SCT040 FEW040TCU 26/16 Q1013 NOSIG
YBOK 230300Z 05008G19KT 360V070 CAVOK 27/11 Q1015 NOSIG
YOLD 230300Z AUTO 24009KT 210V280 9999 // SCT100 25/07 Q1010
TAF YOLD 230105Z 2302/2314 24014KT CAVOK
       
YPAD 230330Z 07004KT 020V130 9999 VCSH FEW018 BKN042 BKN090 21/15 Q1010 INTER 0330/0630 5000 SHRA SCT015 BKN025
TAF YPAD 222333Z 2300/2406 28010KT 9999 -SHRA SCT020 SCT035 
     FM230900 15008KT 9999 -SHRA SCT025 SCT040 
     FM231400 VRB03KT CAVOK 
     FM231900 04005KT 9999 SCT010 
     FM240000 21012KT 9999 -SHRA SCT030 INTER 2300/2309 5000 SHRA SCT015 BKN025 
     PROB30 INTER 2303/2308 3000 TSRA BKN015 SCT080CB
       
YPBO 230300Z AUTO 07015KT 9999 // NCD 39/07 Q1008
YPCC 230330Z 13015KT 9999 FEW023 28/22 Q1010
TAF YPCC 222303Z 2300/2324 13014KT 9999 SCT025
       
YPDN 230330Z 35009KT 9999 FEW032TCU BKN330 31/24 Q1006 FM0400 34008KT 9999 SCT040
TAF AMD YPDN 222310Z 2300/2406 35005KT 9999 FEW020 
     FM230200 34008KT 9999 SCT040 
     FM231200 04005KT 9999 FEW020 
     FM240300 04013KT 9999 SCT030 
     PROB30 
     TEMPO 2304/2311 VRB20G40KT 1000 TSRA BKN010 SCT020CB 
     PROB30 
     TEMPO 2316/2322 VRB20G35KT 1000 TSRA BKN010 SCT020CB
       
YPEA 230330Z 09010KT 030V110 CAVOK 28/06 Q1015 NOSIG
TAF YPEA 222222Z 2300/2318 09014G25KT CAVOK 
     FM230200 08010KT CAVOK 
     FM230600 13007KT CAVOK 
     FM231000 23014KT CAVOK 
     FM231400 17008KT CAVOK
       
YPGV 230330Z 06010KT 9999 FEW027 SCT034 FEW030TCU 31/23 Q1007
TAF YPGV 230004Z 2302/2314 05010KT 9999 SCT020 
     FM230800 05005KT 9999 SCT020
       
YPJT 230330Z AUTO 08008KT 030V120 9999 // NCD 29/04 Q1015 RF00.0/000.0
TAF YPJT 222234Z 2300/2318 08014G24KT CAVOK 
     FM230200 10010KT CAVOK 
     FM230800 23014KT CAVOK 
     FM231200 17008KT CAVOK
       
YPKG 230330Z AUTO 09012KT 9999 // NCD 23/05 Q1018
TAF YPKG 222302Z 2300/2324 10010KT CAVOK
       
YPKU 230330Z AUTO 22008KT 170V250 9999 // NCD 36/22 Q1005 RF00.0/000.0
TAF YPKU 230022Z 2302/2314 32007KT CAVOK 
     PROB30 
     TEMPO 2304/2314 VRB25G45KT 2000 TSRA BKN020 FEW070CB
       
YPLM 230330Z AUTO 36008KT 9999 // NCD 39/03 Q1005
TAF YPLM 222302Z 2300/2324 16010KT CAVOK 
     FM230300 03012KT CAVOK 
     FM230600 32014KT CAVOK 
     FM231000 23014KT CAVOK
       
YPPD 230330Z AUTO 36009KT 9999 // NCD 36/19 Q1004
TAF YPPD 222302Z 2300/2324 08014KT CAVOK 
     FM230600 34014KT CAVOK 
     FM231200 28007KT CAVOK 
     FM231800 VRB03KT CAVOK
       
YPPH 230330Z 09009KT CAVOK 28/05 Q1015 NOSIG
TAF YPPH 222303Z 2300/2406 09016G26KT CAVOK 
     FM230200 12010KT CAVOK 
     FM230900 23014KT CAVOK 
     FM231300 17010KT CAVOK 
     FM231800 09010KT CAVOK
       
YPTN 230330Z 13011KT 9999 -SHRA FEW030 BKN090 31/22 Q1007 NOSIG
TAF AMD YPTN 230206Z 2302/2324 32006KT 9999 SCT030 
     PROB30 
     TEMPO 2303/2314 VRB20G35KT 1000 TSRA SCT010 SCT030CB
       
YPWR 230330Z AUTO 26010KT 9999 // SCT100 23/08 Q1010
TAF AMD YPWR 230052Z 2300/2318 24012KT 9999 -SHRA SCT020 
     FM230300 27014KT CAVOK 
     FM231500 24014KT 9999 SCT020 
     PROB30 INTER 2301/2303 VRB20G35KT 5000 TSRA SCT015 SCT080CB
       
YPXM 230330Z AUTO 15009KT 9999 // SCT017 27/22 Q1010
TAF AMD YPXM 222303Z 2300/2324 17008KT 9999 -SHRA SCT015 INTER 2312/2324 3000 SHRA BKN010
       
YPBO 230300Z AUTO 07015KT 9999 // NCD 39/07 Q1008
YPEA 230330Z 09010KT 030V110 CAVOK 28/06 Q1015 NOSIG
TAF YPEA 222222Z 2300/2318 09014G25KT CAVOK 
     FM230200 08010KT CAVOK 
     FM230600 13007KT CAVOK 
     FM231000 23014KT CAVOK 
     FM231400 17008KT CAVOK
       
YPPH 230330Z 09009KT CAVOK 28/05 Q1015 NOSIG
TAF YPPH 222303Z 2300/2406 09016G26KT CAVOK 
     FM230200 12010KT CAVOK 
     FM230900 23014KT CAVOK 
     FM231300 17010KT CAVOK 
     FM231800 09010KT CAVOK
       
YPJT 230330Z AUTO 08008KT 030V120 9999 // NCD 29/04 Q1015 RF00.0/000.0
TAF YPJT 222234Z 2300/2318 08014G24KT CAVOK 
     FM230200 10010KT CAVOK 
     FM230800 23014KT CAVOK 
     FM231200 17008KT CAVOK
       
YPPD 230330Z AUTO 36009KT 9999 // NCD 36/19 Q1004
TAF YPPD 222302Z 2300/2324 08014KT CAVOK 
     FM230600 34014KT CAVOK 
     FM231200 28007KT CAVOK 
     FM231800 VRB03KT CAVOK
       
YBPN 230300Z AUTO 11014KT 9999 // NCD 28/20 Q1010
YSRI 230330Z AUTO 06010KT 350V070 9999 // SCT066 30/12 Q1013
TAF YSRI 222318Z 2300/2324 07012KT 9999 FEW035 
     FM230900 VRB03KT 9999 FEW030 
     FM232200 04005KT 9999 FEW015 
     PROB30 2316/2321 0500 FG
       
YRMD 230300Z AUTO 34005KT 9999 // NCD 34/16 Q1007
TAF YRMD 221848Z 2220/2308 03010KT 9999 SCT025 SCT050 
     PROB30 
     TEMPO 2304/2308 VRB25G35KT 1000 TSRA BKN012 SCT050CB
       
YBRK 230330Z 07007KT 050V110 CAVOK 29/15 Q1011 RF00.0/000.0
TAF YBRK 222321Z 2300/2324 09010KT 9999 FEW040 
     FM231000 14008KT 9999 SCT025 
     FM232300 12010KT 9999 FEW040
       
YSCB 230330Z 19017KT 9999 -SHRA VCTS SCT050 SCT200 FEW050CB 21/08 Q1015 INTER 0400/0630 VRB20G30KT 4000 TSRA BKN030 SCT050CB
TAF YSCB 222312Z 2300/2324 32010KT 9999 FEW045 
     FM230200 33010KT 9999 -SHRA SCT050 
     FM230900 08010KT 9999 SCT040 
     PROB30 INTER 2303/2309 VRB20G30KT 4000 TSRA BKN030 SCT050CB
       
YSDU 230330Z AUTO 32009KT 300V020 9999 // SCT076 30/08 Q1014
TAF YSDU 222302Z 2300/2318 35010KT 9999 -SHRA BKN080 
     FM230900 06008KT 9999 FEW080
       
YSNF 230337Z 09015G25KT 9999 FEW017 22/16 Q1021
TAF YSNF 222321Z 2300/2324 09020G30KT 9999 -SHRA SCT010 BKN020 
     FM230800 08015KT 9999 -SHRA SCT010 BKN020 INTER 2300/2303 6000 SHRA BKN010
       
YSNW 230300Z 07014KT 9999 SCT040 FEW040TCU 26/16 Q1013 NOSIG
YSRI 230330Z AUTO 06010KT 350V070 9999 // SCT066 30/12 Q1013
TAF YSRI 222318Z 2300/2324 07012KT 9999 FEW035 
     FM230900 VRB03KT 9999 FEW030 
     FM232200 04005KT 9999 FEW015 
     PROB30 2316/2321 0500 FG
       
YSSY 230330Z 06018KT 9999 FEW045 25/14 Q1015 NOSIG
TAF YSSY 222229Z 2300/2406 04015KT 9999 FEW040 
     FM231000 01008KT 9999 FEW025 
     FM240100 04018KT CAVOK
       
YSTW 230330Z AUTO 26010KT 9999 // SCT075 26/08 Q1015 RF00.0////./
TAF YSTW 222302Z 2300/2318 31008KT 9999 FEW060 
     FM230300 23008KT 9999 -SHRA SCT060 
     PROB30 INTER 2303/2309 VRB20G35KT 4000 TSRA SCT020 SCT050CB
       
YSWG 230300Z AUTO 34007KT 310V020 9999 // NCD 30/06 Q1012
YKRY 230300Z AUTO 08008KT 9999 // NCD 23/13 Q1015
YSSY 230330Z 06018KT 9999 FEW045 25/14 Q1015 NOSIG
TAF YSSY 222229Z 2300/2406 04015KT 9999 FEW040 
     FM231000 01008KT 9999 FEW025 
     FM240100 04018KT CAVOK
       
YSTW 230330Z AUTO 26010KT 9999 // SCT075 26/08 Q1015 RF00.0////./
TAF YSTW 222302Z 2300/2318 31008KT 9999 FEW060 
     FM230300 23008KT 9999 -SHRA SCT060 
     PROB30 INTER 2303/2309 VRB20G35KT 4000 TSRA SCT020 SCT050CB
       
YTRE 230300Z AUTO 08013KT 9999 // NCD 25/17 Q1015
TAF YTRE 230057Z 2302/2314 07010KT 9999 -SHRA SCT030 
     FM230900 03005KT 9999 FEW040 INTER 2302/2303 4000 SHRA BKN015
       
YTEF 230300Z AUTO 13015KT //// // NCD 35/12 Q1008
YTNK 230300Z AUTO 34007KT 290V010 9999 // ////// 35/17 Q1008
TAF YTNK 230005Z 2302/2314 04012KT CAVOK 
     FM230400 06006KT CAVOK 
     PROB30 
     TEMPO 2306/2314 VRB20G35KT 2000 TSRA BKN015 SCT040CB
       
YTEF 230300Z AUTO 13015KT //// // NCD 35/12 Q1008
YTNK 230300Z AUTO 34007KT 290V010 9999 // ////// 35/17 Q1008
TAF YTNK 230005Z 2302/2314 04012KT CAVOK 
     FM230400 06006KT CAVOK 
     PROB30 
     TEMPO 2306/2314 VRB20G35KT 2000 TSRA BKN015 SCT040CB
       
YTRE 230300Z AUTO 08013KT 9999 // NCD 25/17 Q1015
TAF YTRE 230057Z 2302/2314 07010KT 9999 -SHRA SCT030 
     FM230900 03005KT 9999 FEW040 INTER 2302/2303 4000 SHRA BKN015
       
YPTN 230330Z 13011KT 9999 -SHRA FEW030 BKN090 31/22 Q1007 NOSIG
TAF AMD YPTN 230206Z 2302/2324 32006KT 9999 SCT030 
     PROB30 
     TEMPO 2303/2314 VRB20G35KT 1000 TSRA SCT010 SCT030CB
       
YBTL 230330Z 07016KT 9999 VCSH FEW028 BKN250 28/21 Q1009 NOSIG
TAF AMD YBTL 230320Z 2303/2324 07016KT 9999 -SHRA SCT030 SCT055 
     FM230900 10008KT 9999 -SHRA SCT020 SCT040 
     FM231500 13006KT 9999 -SHRA SCT020 SCT040 INTER 2311/2322 4000 SHRA BKN015
       
YSWG 230300Z AUTO 34007KT 310V020 9999 // NCD 30/06 Q1012
YWGT 230300Z AUTO 04007KT 350V090 9999 // NCD 30/08 Q1012
TAF AMD YWGT 230241Z 2302/2314 02010KT CAVOK 
     PROB30 INTER 2303/2310 4000 TSRA BKN070 SCT100CB
       
YBWP 230300Z AUTO 05005KT 010V110 9999 // SCT048 34/20 Q1006
YWHA 230300Z AUTO 19006KT 150V210 9999 // SCT016 SCT033 SCT047 18/17 Q1009
YWLM 230330Z 11014KT 9999 FEW042 FEW042CB 25/15 Q1015 NOSIG
TAF AMD YWLM 222316Z 2300/2324 08008KT 9999 -SHRA SCT020 
     FM230300 07015KT 9999 SCT025 
     FM231000 03005KT 9999 FEW025 
     FM231800 33005KT 9999 FEW020 
     PROB30 2316/2321 0500 FG
       
YPWR 230330Z AUTO 26010KT 9999 // SCT100 23/08 Q1010
TAF AMD YPWR 230052Z 2300/2318 24012KT 9999 -SHRA SCT020 
     FM230300 27014KT CAVOK 
     FM231500 24014KT 9999 SCT020 
     PROB30 INTER 2301/2303 VRB20G35KT 5000 TSRA SCT015 SCT080CB